createdAt,value
2023-05-15T00:01:33.976Z,12.30
2023-05-15T00:04:02.476Z,12.30
2023-05-15T00:06:30.616Z,12.30
2023-05-15T00:08:58.761Z,12.30
2023-05-15T00:11:28.145Z,12.30
2023-05-15T00:13:57.764Z,12.30
2023-05-15T00:16:26.429Z,12.10
2023-05-15T00:18:54.862Z,12.40
2023-05-15T00:21:23.385Z,12.40
2023-05-15T00:23:56.081Z,12.80
2023-05-15T00:26:25.331Z,13.30
2023-05-15T00:28:54.197Z,12.40
2023-05-15T00:31:26.727Z,12.50
2023-05-15T00:33:55.148Z,12.30
2023-05-15T00:36:25.746Z,12.60
2023-05-15T00:38:54.086Z,13.00
2023-05-15T00:41:24.433Z,12.40
2023-05-15T00:43:53.783Z,12.10
2023-05-15T00:46:28.461Z,12.10
2023-05-15T00:49:01.694Z,12.00
2023-05-15T00:51:29.946Z,12.50
2023-05-15T00:53:59.589Z,12.80
2023-05-15T00:56:31.750Z,12.10
2023-05-15T00:59:01.124Z,11.90
2023-05-15T01:01:34.201Z,11.90
2023-05-15T01:04:03.776Z,11.80
2023-05-15T01:06:35.414Z,12.10
2023-05-15T01:09:05.666Z,12.00
2023-05-15T01:11:37.197Z,11.90
2023-05-15T01:14:06.505Z,12.30
2023-05-15T01:16:41.711Z,12.00
2023-05-15T01:19:10.251Z,11.80
2023-05-15T01:22:11.963Z,11.80
2023-05-15T01:24:59.766Z,12.80
2023-05-15T01:27:31.619Z,12.30
2023-05-15T01:30:09.263Z,12.90
2023-05-15T01:32:44.866Z,12.00
2023-05-15T01:35:17.676Z,12.50
2023-05-15T01:37:51.186Z,12.30
2023-05-15T01:40:22.637Z,11.80
2023-05-15T01:42:56.902Z,13.20
2023-05-15T01:45:26.834Z,12.40
2023-05-15T01:47:57.122Z,12.10
2023-05-15T01:50:26.324Z,11.80
2023-05-15T01:52:59.938Z,11.90
2023-05-15T01:55:29.615Z,12.20
2023-05-15T01:58:05.136Z,11.80
2023-05-15T02:00:35.791Z,12.20
2023-05-15T02:03:06.521Z,12.30
2023-05-15T02:05:35.943Z,12.20
2023-05-15T02:08:05.481Z,11.80
2023-05-15T02:10:38.441Z,11.70
2023-05-15T02:13:11.338Z,12.20
2023-05-15T02:15:40.194Z,11.80
2023-05-15T02:18:08.513Z,13.10
2023-05-15T02:20:38.102Z,11.70
2023-05-15T02:23:06.372Z,12.00
2023-05-15T02:25:43.495Z,11.70
2023-05-15T02:28:23.795Z,12.80
2023-05-15T02:30:58.903Z,12.20
2023-05-15T02:33:32.918Z,12.60
2023-05-15T02:36:06.412Z,12.50
2023-05-15T02:38:39.149Z,11.60
2023-05-15T02:41:11.169Z,11.50
2023-05-15T02:43:43.631Z,12.50
2023-05-15T02:46:13.494Z,11.60
2023-05-15T02:48:43.558Z,11.60
2023-05-15T02:51:14.968Z,12.10
2023-05-15T02:53:44.583Z,11.50
2023-05-15T02:56:13.005Z,12.20
2023-05-15T02:58:43.683Z,11.60
2023-05-15T03:01:12.663Z,11.60
2023-05-15T03:03:41.094Z,11.70
2023-05-15T03:06:09.333Z,11.60
2023-05-15T03:08:37.620Z,11.90
2023-05-15T03:11:06.212Z,12.10
2023-05-15T03:13:34.710Z,12.30
2023-05-15T03:16:04.447Z,11.90
2023-05-15T03:18:32.906Z,11.70
2023-05-15T03:21:02.623Z,11.90
2023-05-15T03:23:32.130Z,11.50
2023-05-15T03:26:00.381Z,12.20
2023-05-15T03:28:28.808Z,12.50
2023-05-15T03:30:57.178Z,11.50
2023-05-15T03:33:26.930Z,11.50
2023-05-15T03:35:55.081Z,11.40
2023-05-15T03:38:23.420Z,12.00
2023-05-15T03:40:51.730Z,11.80
2023-05-15T03:43:20.042Z,11.50
2023-05-15T03:45:48.232Z,11.60
2023-05-15T03:48:16.621Z,11.80
2023-05-15T03:50:47.412Z,11.90
2023-05-15T03:53:15.621Z,12.30
2023-05-15T03:55:43.881Z,11.60
2023-05-15T03:58:12.148Z,11.30
2023-05-15T04:00:40.390Z,12.20
2023-05-15T04:03:08.735Z,12.80
2023-05-15T04:05:39.810Z,13.30
2023-05-15T04:08:10.184Z,11.80
2023-05-15T04:10:38.491Z,11.90
2023-05-15T04:13:07.372Z,12.30
2023-05-15T04:15:37.171Z,12.40
2023-05-15T04:18:05.456Z,12.00
2023-05-15T04:20:34.368Z,11.90
2023-05-15T04:23:04.116Z,12.90
2023-05-15T04:25:33.831Z,12.60
2023-05-15T04:28:02.740Z,12.90
2023-05-15T04:30:38.595Z,12.00
2023-05-15T04:33:07.130Z,12.00
2023-05-15T04:35:35.906Z,12.10
2023-05-15T04:38:04.346Z,12.10
2023-05-15T04:40:34.070Z,12.10
2023-05-15T04:43:04.167Z,12.10
2023-05-15T04:45:44.554Z,12.60
2023-05-15T04:48:15.464Z,12.10
2023-05-15T04:50:43.547Z,12.10
2023-05-15T04:53:11.969Z,12.20
2023-05-15T04:55:41.694Z,12.20
2023-05-15T04:58:10.579Z,12.40
2023-05-15T05:00:39.152Z,12.60
2023-05-15T05:03:07.492Z,12.50
2023-05-15T05:05:41.010Z,13.00
2023-05-15T05:08:09.056Z,12.50
2023-05-15T05:10:37.079Z,12.90
2023-05-15T05:13:06.788Z,13.30
2023-05-15T05:15:34.992Z,12.60
2023-05-15T05:18:03.319Z,12.60
2023-05-15T05:20:31.724Z,12.60
2023-05-15T05:22:59.922Z,12.70
2023-05-15T05:25:28.089Z,13.00
2023-05-15T05:27:56.189Z,12.70
2023-05-15T05:30:26.037Z,13.30
2023-05-15T05:32:54.165Z,13.40
2023-05-15T05:35:24.480Z,13.40
2023-05-15T05:37:52.969Z,13.00
2023-05-15T05:40:21.389Z,13.10
2023-05-15T05:42:49.666Z,13.10
2023-05-15T05:45:21.130Z,13.10
2023-05-15T05:47:51.034Z,13.00
2023-05-15T05:50:22.071Z,13.10
2023-05-15T05:52:50.577Z,14.30
2023-05-15T05:55:18.878Z,13.70
2023-05-15T05:57:47.523Z,13.10
2023-05-15T06:00:16.825Z,13.10
2023-05-15T06:02:47.958Z,13.20
2023-05-15T06:05:19.996Z,13.30
2023-05-15T06:07:57.699Z,13.50
2023-05-15T06:10:26.507Z,13.50
2023-05-15T06:12:57.337Z,13.90
2023-05-15T06:15:27.566Z,13.60
2023-05-15T06:17:57.991Z,13.70
2023-05-15T06:20:31.607Z,13.70
2023-05-15T06:23:04.546Z,13.40
2023-05-15T06:25:34.484Z,13.40
2023-05-15T06:28:03.278Z,14.00
2023-05-15T06:30:33.967Z,15.30
2023-05-15T06:33:05.718Z,14.10
2023-05-15T06:35:36.981Z,14.30
2023-05-15T06:38:05.297Z,14.60
2023-05-15T06:40:33.848Z,13.80
2023-05-15T06:43:06.311Z,14.20
2023-05-15T06:45:37.069Z,14.60
2023-05-15T06:48:05.899Z,14.30
2023-05-15T06:50:39.122Z,14.30
2023-05-15T06:53:07.447Z,14.40
2023-05-15T06:55:40.822Z,15.40
2023-05-15T06:58:12.057Z,14.60
2023-05-15T07:00:40.466Z,14.10
2023-05-15T07:03:13.672Z,14.60
2023-05-15T07:05:48.878Z,14.60
2023-05-15T07:08:25.851Z,14.30
2023-05-15T07:10:54.132Z,14.70
2023-05-15T07:13:25.562Z,14.70
2023-05-15T07:15:59.278Z,14.60
2023-05-15T07:18:31.344Z,15.50
2023-05-15T07:21:03.445Z,14.20
2023-05-15T07:23:34.434Z,14.90
2023-05-15T07:26:03.798Z,15.10
2023-05-15T07:28:32.583Z,15.00
2023-05-15T07:31:07.381Z,16.10
2023-05-15T07:33:40.558Z,14.60
2023-05-15T07:36:15.423Z,14.80
2023-05-15T07:38:55.314Z,14.90
2023-05-15T07:41:23.697Z,14.40
2023-05-15T07:43:54.778Z,15.20
2023-05-15T07:46:30.045Z,14.70
2023-05-15T07:48:58.227Z,14.70
2023-05-15T07:51:27.912Z,14.70
2023-05-15T07:53:58.607Z,15.10
2023-05-15T07:56:27.151Z,15.20
2023-05-15T07:58:59.720Z,15.20
2023-05-15T08:01:29.993Z,15.20
2023-05-15T08:04:01.463Z,14.70
2023-05-15T08:06:36.934Z,14.60
2023-05-15T08:09:07.836Z,14.70
2023-05-15T08:11:39.176Z,14.20
2023-05-15T08:14:19.627Z,14.20
2023-05-15T08:16:57.752Z,14.40
2023-05-15T08:19:35.802Z,14.50
2023-05-15T08:22:06.434Z,13.90
2023-05-15T08:24:38.960Z,14.40
2023-05-15T08:27:07.677Z,14.70
2023-05-15T08:29:38.662Z,14.30
2023-05-15T08:32:10.213Z,14.70
2023-05-15T08:34:38.995Z,14.30
2023-05-15T08:37:13.072Z,14.60
2023-05-15T08:39:41.530Z,14.20
2023-05-15T08:42:22.856Z,14.10
2023-05-15T08:44:55.165Z,15.40
2023-05-15T08:47:27.677Z,14.60
2023-05-15T08:50:18.134Z,14.10
2023-05-15T08:52:54.823Z,14.40
2023-05-15T08:55:25.901Z,14.40
2023-05-15T08:57:55.956Z,14.40
2023-05-15T09:00:26.182Z,14.20
2023-05-15T09:02:56.175Z,14.40
2023-05-15T09:05:32.441Z,13.90
2023-05-15T09:10:58.029Z,14.10
2023-05-15T09:13:30.803Z,15.00
2023-05-15T09:16:10.377Z,14.20
2023-05-15T09:18:53.039Z,14.50
2023-05-15T09:21:32.539Z,14.70
2023-05-15T09:24:28.692Z,14.60
2023-05-15T09:27:14.218Z,14.70
2023-05-15T09:29:47.470Z,14.80
2023-05-15T09:32:19.168Z,14.60
2023-05-15T09:34:48.133Z,14.90
2023-05-15T09:37:35.331Z,15.50
2023-05-15T09:40:28.494Z,14.90
2023-05-15T09:42:56.665Z,14.90
2023-05-15T09:45:31.655Z,15.00
2023-05-15T09:48:12.159Z,15.10
2023-05-15T09:51:00.182Z,15.20
2023-05-15T09:53:37.668Z,15.10
2023-05-15T09:56:13.637Z,15.10
2023-05-15T09:58:56.298Z,15.10
2023-05-15T10:01:29.282Z,15.40
2023-05-15T10:04:01.678Z,15.10
2023-05-15T10:06:36.762Z,15.10
2023-05-15T10:09:06.316Z,15.10
2023-05-15T10:11:46.161Z,15.10
2023-05-15T10:14:15.331Z,15.10
2023-05-15T10:16:43.857Z,15.90
2023-05-15T10:19:14.614Z,14.80
2023-05-15T10:21:43.863Z,14.90
2023-05-15T10:24:14.601Z,15.30
2023-05-15T10:26:51.952Z,14.80
2023-05-15T10:29:26.025Z,15.20
2023-05-15T10:32:01.260Z,15.30
2023-05-15T10:34:32.289Z,14.90
2023-05-15T10:37:18.706Z,15.20
2023-05-15T10:39:49.102Z,15.10
2023-05-15T10:42:19.511Z,15.20
2023-05-15T10:44:49.396Z,15.00
2023-05-15T10:47:17.753Z,15.30
2023-05-15T10:49:48.476Z,15.40
2023-05-15T10:52:17.507Z,16.50
2023-05-15T10:54:46.181Z,15.30
2023-05-15T10:57:15.973Z,16.80
2023-05-15T11:00:01.440Z,15.60
2023-05-15T11:02:31.744Z,15.30
2023-05-15T11:05:03.230Z,15.40
2023-05-15T11:07:31.362Z,15.40
2023-05-15T11:10:03.168Z,15.60
2023-05-15T11:12:58.792Z,15.50
2023-05-15T11:15:43.293Z,15.60
2023-05-15T11:18:25.074Z,15.00
2023-05-15T11:21:11.749Z,14.70
2023-05-15T11:23:46.639Z,14.70
2023-05-15T11:26:18.641Z,15.20
2023-05-15T11:28:47.713Z,15.80
2023-05-15T11:31:31.852Z,15.50
2023-05-15T11:34:06.291Z,15.10
2023-05-15T11:36:37.771Z,15.90
2023-05-15T11:39:12.201Z,14.80
2023-05-15T11:41:41.382Z,14.90
2023-05-15T11:44:10.736Z,14.90
2023-05-15T11:46:56.919Z,15.50
2023-05-15T11:49:26.509Z,16.20
2023-05-15T11:51:56.454Z,15.00
2023-05-15T11:54:26.279Z,14.70
2023-05-15T11:56:58.756Z,15.00
2023-05-15T11:59:28.470Z,14.50
2023-05-15T12:02:08.511Z,15.30
2023-05-15T12:04:37.029Z,14.30
2023-05-15T12:07:22.005Z,13.80
2023-05-15T12:09:55.516Z,14.20
2023-05-15T12:12:27.016Z,15.50
2023-05-15T12:14:59.917Z,14.60
2023-05-15T12:17:38.036Z,14.40
2023-05-15T12:20:12.955Z,14.50
2023-05-15T12:22:42.343Z,14.60
2023-05-15T12:25:11.700Z,14.70
2023-05-15T12:27:47.827Z,14.90
2023-05-15T12:30:21.992Z,14.90
2023-05-15T12:33:08.007Z,15.10
2023-05-15T12:35:38.964Z,14.70
2023-05-15T12:38:09.764Z,14.70
2023-05-15T12:40:40.808Z,15.70
2023-05-15T12:43:09.607Z,14.60
2023-05-15T12:45:40.035Z,14.60
2023-05-15T12:48:15.664Z,14.60
2023-05-15T12:50:46.153Z,14.30
2023-05-15T12:53:15.795Z,14.50
2023-05-15T12:55:46.552Z,14.80
2023-05-15T12:58:21.378Z,14.30
2023-05-15T13:00:51.078Z,14.20
2023-05-15T13:03:23.050Z,15.50
2023-05-15T13:05:53.637Z,14.20
2023-05-15T13:08:22.214Z,15.00
2023-05-15T13:10:58.178Z,14.20
2023-05-15T13:13:44.328Z,14.20
2023-05-15T13:16:23.259Z,14.20
2023-05-15T13:18:55.065Z,14.10
2023-05-15T13:21:23.742Z,15.40
2023-05-15T13:23:52.704Z,14.30
2023-05-15T13:26:21.134Z,14.30
2023-05-15T13:28:50.705Z,14.30
2023-05-15T13:31:20.443Z,14.30
2023-05-15T13:33:49.113Z,14.50
2023-05-15T13:36:18.896Z,15.10
2023-05-15T13:38:47.107Z,15.00
2023-05-15T13:41:17.326Z,15.10
2023-05-15T13:43:45.530Z,14.30
2023-05-15T13:46:19.326Z,14.20
2023-05-15T13:48:50.381Z,15.70
2023-05-15T13:51:21.418Z,14.50
2023-05-15T13:53:50.093Z,14.00
2023-05-15T13:56:18.382Z,14.30
2023-05-15T13:58:47.099Z,14.80
2023-05-15T14:01:15.361Z,15.10
2023-05-15T14:03:45.826Z,13.90
2023-05-15T14:06:29.088Z,13.90
2023-05-15T14:09:01.726Z,13.90
2023-05-15T14:11:38.109Z,14.10
2023-05-15T14:14:08.827Z,13.80
2023-05-15T14:16:37.401Z,14.00
2023-05-15T14:19:05.610Z,14.00
2023-05-15T14:21:38.999Z,14.10
2023-05-15T14:24:08.258Z,14.50
2023-05-15T14:26:36.745Z,14.10
2023-05-15T14:29:05.345Z,14.00
2023-05-15T14:31:33.988Z,13.90
2023-05-15T14:34:02.240Z,14.20
2023-05-15T14:36:30.917Z,14.00
2023-05-15T14:39:00.839Z,14.70
2023-05-15T14:41:29.256Z,14.00
2023-05-15T14:43:57.610Z,14.00
2023-05-15T14:46:26.230Z,14.00
2023-05-15T14:48:57.455Z,14.00
2023-05-15T14:51:28.715Z,13.80
2023-05-15T14:53:57.261Z,14.10
2023-05-15T14:56:29.484Z,14.40
2023-05-15T14:58:57.659Z,13.90
2023-05-15T15:01:26.466Z,13.80
2023-05-15T15:03:54.928Z,13.80
2023-05-15T15:06:23.533Z,15.10
2023-05-15T15:08:51.974Z,14.50
2023-05-15T15:11:20.179Z,14.10
2023-05-15T15:13:49.999Z,14.80
2023-05-15T15:16:18.317Z,14.40
2023-05-15T15:18:48.081Z,13.40
2023-05-15T15:21:16.450Z,13.50
2023-05-15T15:23:45.990Z,13.80
2023-05-15T15:26:14.488Z,13.70
2023-05-15T15:28:42.672Z,13.10
2023-05-15T15:31:14.613Z,13.50
2023-05-15T15:33:42.947Z,13.50
2023-05-15T15:36:11.135Z,13.80
2023-05-15T15:38:43.847Z,13.30
2023-05-15T15:41:12.374Z,13.10
2023-05-15T15:43:41.021Z,13.10
2023-05-15T15:46:12.087Z,13.10
2023-05-15T15:48:45.804Z,13.00
2023-05-15T15:51:15.376Z,13.00
2023-05-15T15:53:46.733Z,13.10
2023-05-15T15:56:22.763Z,13.30
2023-05-15T15:59:02.678Z,12.40
2023-05-15T16:01:37.053Z,12.70
2023-05-15T16:04:08.329Z,12.70
2023-05-15T16:06:46.835Z,12.90
2023-05-15T16:09:25.245Z,12.60
2023-05-15T16:11:54.053Z,13.10
2023-05-15T16:14:41.768Z,13.20
2023-05-15T16:17:10.141Z,13.20
2023-05-15T16:19:48.698Z,12.30
2023-05-15T16:22:19.426Z,13.20
2023-05-15T16:24:56.284Z,13.10
2023-05-15T16:27:24.839Z,12.80
2023-05-15T16:29:53.015Z,12.40
2023-05-15T16:32:21.496Z,12.40
2023-05-15T16:34:57.072Z,12.40
2023-05-15T16:37:25.617Z,12.90
2023-05-15T16:39:54.715Z,12.40
2023-05-15T16:42:25.986Z,12.30
2023-05-15T16:45:01.038Z,12.30
2023-05-15T16:47:29.594Z,13.10
2023-05-15T16:50:06.554Z,12.30
2023-05-15T16:52:44.683Z,12.30
2023-05-15T16:55:25.056Z,12.40
2023-05-15T16:57:56.515Z,13.30
2023-05-15T17:00:25.301Z,12.50
2023-05-15T17:02:53.763Z,12.40
2023-05-15T17:05:26.585Z,12.50
2023-05-15T17:07:54.929Z,12.40
2023-05-15T17:10:27.000Z,12.30
2023-05-15T17:12:58.732Z,12.30
2023-05-15T17:15:30.333Z,12.30
2023-05-15T17:18:01.687Z,12.30
2023-05-15T17:20:35.048Z,13.40
2023-05-15T17:23:08.378Z,12.80
2023-05-15T17:25:42.041Z,12.20
2023-05-15T17:28:10.646Z,12.30
2023-05-15T17:30:45.709Z,12.40
2023-05-15T17:33:14.372Z,13.00
2023-05-15T17:35:47.021Z,12.90
2023-05-15T17:38:23.042Z,13.20
2023-05-15T17:40:59.133Z,12.30
2023-05-15T17:43:27.512Z,12.30
2023-05-15T17:46:09.808Z,13.20
2023-05-15T17:48:50.320Z,12.80
2023-05-15T17:51:20.297Z,11.40
2023-05-15T17:53:56.918Z,13.20
2023-05-15T17:56:41.822Z,12.80
2023-05-15T17:59:15.023Z,12.30
2023-05-15T18:02:01.504Z,12.00
2023-05-15T18:04:32.129Z,12.20
2023-05-15T18:07:20.229Z,11.80
2023-05-15T18:10:06.345Z,11.80
2023-05-15T18:12:38.553Z,12.30
2023-05-15T18:15:14.897Z,13.30
2023-05-15T18:17:46.154Z,12.10
2023-05-15T18:20:22.193Z,11.90
2023-05-15T18:22:57.891Z,11.50
2023-05-15T18:25:37.165Z,12.70
2023-05-15T18:28:14.365Z,12.00
2023-05-15T18:30:43.004Z,12.00
2023-05-15T18:33:13.452Z,12.80
2023-05-15T18:35:44.582Z,13.40
2023-05-15T18:38:14.472Z,12.20
2023-05-15T18:40:48.118Z,13.20
2023-05-15T18:43:17.947Z,12.90
2023-05-15T18:45:46.589Z,12.60
2023-05-15T18:48:15.226Z,12.40
2023-05-15T18:50:45.179Z,13.30
2023-05-15T18:53:18.918Z,10.60
2023-05-15T18:55:54.110Z,12.20
2023-05-15T18:58:24.808Z,12.10
2023-05-15T19:00:56.652Z,12.80
2023-05-15T19:03:28.919Z,11.60
2023-05-15T19:06:00.177Z,12.40
2023-05-15T19:08:45.331Z,12.20
2023-05-15T19:11:23.013Z,12.10
2023-05-15T19:13:51.887Z,11.70
2023-05-15T19:16:38.774Z,12.10
2023-05-15T19:19:08.423Z,12.10
2023-05-15T19:21:46.709Z,12.10
2023-05-15T19:24:16.577Z,12.90
2023-05-15T19:30:07.225Z,11.80
2023-05-15T19:40:07.376Z,12.60
2023-05-15T19:43:10.231Z,12.40
2023-05-15T19:47:31.651Z,11.80
2023-05-15T19:49:50.426Z,11.10
2023-05-15T19:52:22.097Z,12.00
2023-05-15T19:59:20.297Z,12.50
2023-05-15T20:01:55.914Z,11.70
2023-05-15T20:05:08.317Z,11.70
2023-05-15T20:08:22.471Z,11.30
2023-05-15T20:14:32.272Z,11.60
2023-05-15T20:17:20.083Z,12.00
2023-05-15T20:20:08.990Z,11.10
2023-05-15T20:23:13.841Z,12.00
2023-05-15T20:28:45.614Z,11.60
2023-05-15T20:35:05.986Z,11.50
2023-05-15T20:38:51.265Z,12.30
2023-05-15T20:41:54.664Z,11.70
2023-05-15T20:47:32.926Z,11.80
2023-05-15T20:53:46.958Z,12.20
2023-05-15T20:57:06.888Z,11.70
2023-05-15T21:00:35.599Z,11.40
2023-05-15T21:03:26.793Z,11.10
2023-05-15T21:10:00.414Z,12.30
2023-05-15T21:16:01.272Z,12.10
2023-05-15T21:21:54.592Z,11.40
2023-05-15T21:25:05.670Z,12.70
2023-05-15T21:28:05.255Z,12.10
2023-05-15T21:36:53.469Z,10.60
2023-05-15T21:39:54.380Z,11.70
2023-05-15T21:42:37.560Z,10.70
2023-05-15T21:45:29.283Z,10.90
2023-05-15T21:48:13.903Z,11.10
2023-05-15T21:51:11.739Z,11.80
2023-05-15T21:53:45.990Z,11.00
2023-05-15T21:56:51.110Z,9.90
2023-05-15T21:59:37.656Z,10.50
2023-05-15T22:02:29.847Z,10.50
2023-05-15T22:05:15.321Z,11.80
2023-05-15T22:08:01.531Z,10.90
2023-05-15T22:10:53.873Z,10.90
2023-05-15T22:13:42.288Z,12.40
2023-05-15T22:20:23.339Z,11.60
2023-05-15T22:23:19.620Z,11.60
2023-05-15T22:26:16.102Z,10.80
2023-05-15T22:32:46.191Z,11.00
2023-05-15T22:35:27.808Z,11.20
2023-05-15T22:38:18.321Z,11.60
2023-05-15T22:41:23.815Z,11.30
2023-05-15T22:44:22.877Z,10.60
2023-05-15T22:47:01.918Z,11.20
2023-05-15T22:49:47.939Z,10.80
2023-05-15T22:52:47.145Z,11.40
2023-05-15T22:55:30.616Z,10.70
2023-05-15T22:58:08.297Z,10.70
2023-05-15T23:00:52.985Z,11.50
2023-05-15T23:03:35.184Z,10.90
2023-05-15T23:06:30.296Z,11.10
2023-05-15T23:09:05.190Z,10.80
2023-05-15T23:12:05.337Z,10.60
2023-05-15T23:14:41.152Z,11.00
2023-05-15T23:17:23.117Z,11.30
2023-05-15T23:20:09.905Z,10.70
2023-05-15T23:22:52.484Z,10.60
2023-05-15T23:25:38.404Z,11.50
2023-05-15T23:28:15.152Z,10.60
2023-05-15T23:30:47.866Z,10.60
2023-05-15T23:33:31.340Z,10.60
2023-05-15T23:36:12.959Z,10.60
2023-05-15T23:38:50.562Z,10.60
2023-05-15T23:41:50.813Z,11.30
2023-05-15T23:44:28.856Z,10.50
2023-05-15T23:47:05.672Z,10.50
2023-05-15T23:49:55.666Z,11.30
2023-05-15T23:52:28.304Z,10.60
2023-05-15T23:55:05.455Z,10.80
2023-05-15T23:57:38.232Z,10.50
